Aviation Digital Data Service (ADDS)

Output produced by METARs form (1849 UTC 26 September 2021)
found at http://www.aviationweather.gov/metar/data/
 
METAR text: KAPC 261801Z 28009KT 10SM CLR 18/11 A3003 RMK AO2 T01830111
Conditions at: KAPC (NAPA , CA, US) observed 1801 UTC 26 September 2021
Temperature: 18.3°C (65°F)
Dewpoint: 11.1°C (52°F) [RH = 63%]
Pressure (altimeter): 30.03 inches Hg (1017.0 mb)
Winds: from the W (280 degrees) at 10 MPH (9 knots; 4.6 m/s)
Visibility: 10 or more miles (16+ km)
Ceiling: at least 12,000 feet AGL
Clouds: sky clear below 12,000 feet AGL
Weather: no significant weather observed at this time

METAR text: KAPC 261754Z COR 27011KT 10SM FEW019 18/11 A3003 RMK AO2 SLP159 60000 T01780111 10183 20144 50006
Conditions at: KAPC (NAPA , CA, US) observed 1754 UTC 26 September 2021
Temperature: 17.8°C (64°F)
Dewpoint: 11.1°C (52°F) [RH = 65%]
Pressure (altimeter): 30.03 inches Hg (1017.0 mb)
[Sea-level pressure: 1015.9 mb]
Winds: from the W (270 degrees) at 13 MPH (11 knots; 5.7 m/s)
Visibility: 10 or more miles (16+ km)
Ceiling: at least 12,000 feet AGL
Clouds: few clouds at 1900 feet AGL
Weather: no significant weather observed at this time

METAR text: KAPC 261654Z COR 27011KT 10SM BKN017 17/11 A3003 RMK AO2 SLP160 T01670111
Conditions at: KAPC (NAPA , CA, US) observed 1654 UTC 26 September 2021
Temperature: 16.7°C (62°F)
Dewpoint: 11.1°C (52°F) [RH = 70%]
Pressure (altimeter): 30.03 inches Hg (1017.0 mb)
[Sea-level pressure: 1016.0 mb]
Winds: from the W (270 degrees) at 13 MPH (11 knots; 5.7 m/s)
Visibility: 10 or more miles (16+ km)
Ceiling: 1700 feet AGL
Clouds: broken clouds at 1700 feet AGL
Weather: no significant weather observed at this time

METAR text: KAPC 261554Z 27009KT 10SM OVC016 15/11 A3002 RMK AO2 SLP156 T01500106
Conditions at: KAPC (NAPA , CA, US) observed 1554 UTC 26 September 2021
Temperature: 15.0°C (59°F)
Dewpoint: 10.6°C (51°F) [RH = 75%]
Pressure (altimeter): 30.02 inches Hg (1016.7 mb)
[Sea-level pressure: 1015.6 mb]
Winds: from the W (270 degrees) at 10 MPH (9 knots; 4.6 m/s)
Visibility: 10 or more miles (16+ km)
Ceiling: 1600 feet AGL
Clouds: overcast cloud deck at 1600 feet AGL
Weather: no significant weather observed at this time

METAR text: KAPC 261454Z 28009KT 10SM OVC016 14/11 A3001 RMK AO2 RAE50 SLP153 P0000 60000 T01440106 53006
Conditions at: KAPC (NAPA , CA, US) observed 1454 UTC 26 September 2021
Temperature: 14.4°C (58°F)
Dewpoint: 10.6°C (51°F) [RH = 78%]
Pressure (altimeter): 30.01 inches Hg (1016.3 mb)
[Sea-level pressure: 1015.3 mb]
Winds: from the W (280 degrees) at 10 MPH (9 knots; 4.6 m/s)
Visibility: 10 or more miles (16+ km)
Ceiling: 1600 feet AGL
Clouds: overcast cloud deck at 1600 feet AGL
Weather: no significant weather observed at this time

METAR text: KAPC 261354Z COR 28011KT 10SM OVC016 14/11 A3000 RMK AO2 SLP150 P0000 T01440111
Conditions at: KAPC (NAPA , CA, US) observed 1354 UTC 26 September 2021
Temperature: 14.4°C (58°F)
Dewpoint: 11.1°C (52°F) [RH = 81%]
Pressure (altimeter): 30.00 inches Hg (1016.0 mb)
[Sea-level pressure: 1015.0 mb]
Winds: from the W (280 degrees) at 13 MPH (11 knots; 5.7 m/s)
Visibility: 10 or more miles (16+ km)
Ceiling: 1600 feet AGL
Clouds: overcast cloud deck at 1600 feet AGL
Weather: no significant weather observed at this time

METAR text: KAPC 261254Z AUTO 29011KT 10SM -RA OVC016 14/11 A2999 RMK AO2 SLP148 P0000 T01440111 TSNO
Conditions at: KAPC (NAPA , CA, US) observed 1254 UTC 26 September 2021
Temperature: 14.4°C (58°F)
Dewpoint: 11.1°C (52°F) [RH = 81%]
Pressure (altimeter): 29.99 inches Hg (1015.7 mb)
[Sea-level pressure: 1014.8 mb]
Winds: from the WNW (290 degrees) at 13 MPH (11 knots; 5.7 m/s)
Visibility: 10 or more miles (16+ km)
Ceiling: 1600 feet AGL
Clouds: overcast cloud deck at 1600 feet AGL
Weather: -RA  (light rain)

METAR text: KAPC 261154Z AUTO 29013KT 10SM -RA OVC016 14/11 A2999 RMK AO2 SLP147 P0000 60000 T01440111 10150 20133 58001
Conditions at: KAPC (NAPA , CA, US) observed 1154 UTC 26 September 2021
Temperature: 14.4°C (58°F)
Dewpoint: 11.1°C (52°F) [RH = 81%]
Pressure (altimeter): 29.99 inches Hg (1015.7 mb)
[Sea-level pressure: 1014.7 mb]
Winds: from the WNW (290 degrees) at 15 MPH (13 knots; 6.7 m/s)
Visibility: 10 or more miles (16+ km)
Ceiling: 1600 feet AGL
Clouds: overcast cloud deck at 1600 feet AGL
Weather: -RA  (light rain)

METAR text: KAPC 261054Z AUTO 30010KT 10SM -RA OVC016 14/11 A2999 RMK AO2 SLP148 P0000 T01440111
Conditions at: KAPC (NAPA , CA, US) observed 1054 UTC 26 September 2021
Temperature: 14.4°C (58°F)
Dewpoint: 11.1°C (52°F) [RH = 81%]
Pressure (altimeter): 29.99 inches Hg (1015.7 mb)
[Sea-level pressure: 1014.8 mb]
Winds: from the WNW (300 degrees) at 12 MPH (10 knots; 5.1 m/s)
Visibility: 10 or more miles (16+ km)
Ceiling: 1600 feet AGL
Clouds: overcast cloud deck at 1600 feet AGL
Weather: -RA  (light rain)

METAR text: KAPC 260954Z AUTO 28009KT 10SM -RA OVC016 15/11 A2999 RMK AO2 SLP148 P0000 T01500111
Conditions at: KAPC (NAPA , CA, US) observed 0954 UTC 26 September 2021
Temperature: 15.0°C (59°F)
Dewpoint: 11.1°C (52°F) [RH = 77%]
Pressure (altimeter): 29.99 inches Hg (1015.7 mb)
[Sea-level pressure: 1014.8 mb]
Winds: from the W (280 degrees) at 10 MPH (9 knots; 4.6 m/s)
Visibility: 10 or more miles (16+ km)
Ceiling: 1600 feet AGL
Clouds: overcast cloud deck at 1600 feet AGL
Weather: -RA  (light rain)

METAR text: KAPC 260854Z AUTO 26009KT 10SM -RA OVC017 15/11 A3000 RMK AO2 PK WND 24029/0812 SLP148 P0000 60000 T01500111 51003
Conditions at: KAPC (NAPA , CA, US) observed 0854 UTC 26 September 2021
Temperature: 15.0°C (59°F)
Dewpoint: 11.1°C (52°F) [RH = 77%]
Pressure (altimeter): 30.00 inches Hg (1016.0 mb)
[Sea-level pressure: 1014.8 mb]
Winds: from the W (260 degrees) at 10 MPH (9 knots; 4.6 m/s)
Visibility: 10 or more miles (16+ km)
Ceiling: 1700 feet AGL
Clouds: overcast cloud deck at 1700 feet AGL
Weather: -RA  (light rain)

METAR text: KAPC 260754Z AUTO 25011KT 10SM -RA OVC016 14/11 A3000 RMK AO2 SLP148 P0000 T01440111 402280106
Conditions at: KAPC (NAPA , CA, US) observed 0754 UTC 26 September 2021
Temperature: 14.4°C (58°F)
Dewpoint: 11.1°C (52°F) [RH = 81%]
Pressure (altimeter): 30.00 inches Hg (1016.0 mb)
[Sea-level pressure: 1014.8 mb]
Winds: from the WSW (250 degrees) at 13 MPH (11 knots; 5.7 m/s)
Visibility: 10 or more miles (16+ km)
Ceiling: 1600 feet AGL
Clouds: overcast cloud deck at 1600 feet AGL
Weather: -RA  (light rain)

METAR text: KAPC 260654Z AUTO 26010KT 10SM -RA OVC015 14/11 A2999 RMK AO2 SLP148 P0000 T01440111
Conditions at: KAPC (NAPA , CA, US) observed 0654 UTC 26 September 2021
Temperature: 14.4°C (58°F)
Dewpoint: 11.1°C (52°F) [RH = 81%]
Pressure (altimeter): 29.99 inches Hg (1015.7 mb)
[Sea-level pressure: 1014.8 mb]
Winds: from the W (260 degrees) at 12 MPH (10 knots; 5.1 m/s)
Visibility: 10 or more miles (16+ km)
Ceiling: 1500 feet AGL
Clouds: overcast cloud deck at 1500 feet AGL
Weather: -RA  (light rain)

METAR text: KAPC 260630Z AUTO 27008KT 10SM -RA BKN015 14/11 A2999 RMK AO2 P0000 T01390111
Conditions at: KAPC (NAPA , CA, US) observed 0630 UTC 26 September 2021
Temperature: 13.9°C (57°F)
Dewpoint: 11.1°C (52°F) [RH = 83%]
Pressure (altimeter): 29.99 inches Hg (1015.7 mb)
Winds: from the W (270 degrees) at 9 MPH (8 knots; 4.1 m/s)
Visibility: 10 or more miles (16+ km)
Ceiling: 1500 feet AGL
Clouds: broken clouds at 1500 feet AGL
Weather: -RA  (light rain)

METAR text: KAPC 260554Z AUTO 27014KT 10SM -RA CLR 14/11 A2999 RMK AO2 SLP145 P0000 60000 T01390111 10211 20139 51018
Conditions at: KAPC (NAPA , CA, US) observed 0554 UTC 26 September 2021
Temperature: 13.9°C (57°F)
Dewpoint: 11.1°C (52°F) [RH = 83%]
Pressure (altimeter): 29.99 inches Hg (1015.7 mb)
[Sea-level pressure: 1014.5 mb]
Winds: from the W (270 degrees) at 16 MPH (14 knots; 7.2 m/s)
Visibility: 10 or more miles (16+ km)
Ceiling: at least 12,000 feet AGL
Clouds: sky clear below 12,000 feet AGL
Weather: -RA  (light rain)

METAR text: KAPC 260454Z AUTO 26012KT 10SM -RA CLR 14/11 A2997 RMK AO2 RAB15 SLP140 P0000 T01390111
Conditions at: KAPC (NAPA , CA, US) observed 0454 UTC 26 September 2021
Temperature: 13.9°C (57°F)
Dewpoint: 11.1°C (52°F) [RH = 83%]
Pressure (altimeter): 29.97 inches Hg (1015.0 mb)
[Sea-level pressure: 1014.0 mb]
Winds: from the W (260 degrees) at 14 MPH (12 knots; 6.2 m/s)
Visibility: 10 or more miles (16+ km)
Ceiling: at least 12,000 feet AGL
Clouds: sky clear below 12,000 feet AGL
Weather: -RA  (light rain)

METAR text: KAPC 260354Z AUTO 26012KT 10SM CLR 14/11 A2996 RMK AO2 SLP135 T01440111
Conditions at: KAPC (NAPA , CA, US) observed 0354 UTC 26 September 2021
Temperature: 14.4°C (58°F)
Dewpoint: 11.1°C (52°F) [RH = 81%]
Pressure (altimeter): 29.96 inches Hg (1014.6 mb)
[Sea-level pressure: 1013.5 mb]
Winds: from the W (260 degrees) at 14 MPH (12 knots; 6.2 m/s)
Visibility: 10 or more miles (16+ km)
Ceiling: at least 12,000 feet AGL
Clouds: sky clear below 12,000 feet AGL
Weather: automated observation with no human augmentation;
there may or may not be significant weather present at this time

METAR text: KAPC 260254Z 27005KT 10SM CLR 16/11 A2993 RMK AO2 SLP128 T01560111 51005
Conditions at: KAPC (NAPA , CA, US) observed 0254 UTC 26 September 2021
Temperature: 15.6°C (60°F)
Dewpoint: 11.1°C (52°F) [RH = 75%]
Pressure (altimeter): 29.93 inches Hg (1013.6 mb)
[Sea-level pressure: 1012.8 mb]
Winds: from the W (270 degrees) at 6 MPH (5 knots; 2.6 m/s)
Visibility: 10 or more miles (16+ km)
Ceiling: at least 12,000 feet AGL
Clouds: sky clear below 12,000 feet AGL
Weather: no significant weather observed at this time

METAR text: KAPC 260154Z AUTO 24009KT 10SM CLR 18/12 A2993 RMK AO2 SLP127 T01780117
Conditions at: KAPC (NAPA , CA, US) observed 0154 UTC 26 September 2021
Temperature: 17.8°C (64°F)
Dewpoint: 11.7°C (53°F) [RH = 67%]
Pressure (altimeter): 29.93 inches Hg (1013.6 mb)
[Sea-level pressure: 1012.7 mb]
Winds: from the WSW (240 degrees) at 10 MPH (9 knots; 4.6 m/s)
Visibility: 10 or more miles (16+ km)
Ceiling: at least 12,000 feet AGL
Clouds: sky clear below 12,000 feet AGL
Weather: automated observation with no human augmentation;
there may or may not be significant weather present at this time

METAR text: KAPC 260054Z 21012KT 10SM CLR 19/13 A2992 RMK AO2 SLP123 T01940133
Conditions at: KAPC (NAPA , CA, US) observed 0054 UTC 26 September 2021
Temperature: 19.4°C (67°F)
Dewpoint: 13.3°C (56°F) [RH = 68%]
Pressure (altimeter): 29.92 inches Hg (1013.3 mb)
[Sea-level pressure: 1012.3 mb]
Winds: from the SSW (210 degrees) at 14 MPH (12 knots; 6.2 m/s)
Visibility: 10 or more miles (16+ km)
Ceiling: at least 12,000 feet AGL
Clouds: sky clear below 12,000 feet AGL
Weather: no significant weather observed at this time

METAR text: KAPC 252354Z 19011KT 10SM CLR 21/14 A2992 RMK AO2 SLP123 T02110139 10228 20178 56015
Conditions at: KAPC (NAPA , CA, US) observed 2354 UTC 25 September 2021
Temperature: 21.1°C (70°F)
Dewpoint: 13.9°C (57°F) [RH = 63%]
Pressure (altimeter): 29.92 inches Hg (1013.3 mb)
[Sea-level pressure: 1012.3 mb]
Winds: from the S (190 degrees) at 13 MPH (11 knots; 5.7 m/s)
Visibility: 10 or more miles (16+ km)
Ceiling: at least 12,000 feet AGL
Clouds: sky clear below 12,000 feet AGL
Weather: no significant weather observed at this time

METAR text: KAPC 252254Z 20013KT 10SM CLR 21/14 A2993 RMK AO2 SLP126 T02110139
Conditions at: KAPC (NAPA , CA, US) observed 2254 UTC 25 September 2021
Temperature: 21.1°C (70°F)
Dewpoint: 13.9°C (57°F) [RH = 63%]
Pressure (altimeter): 29.93 inches Hg (1013.6 mb)
[Sea-level pressure: 1012.6 mb]
Winds: from the SSW (200 degrees) at 15 MPH (13 knots; 6.7 m/s)
Visibility: 10 or more miles (16+ km)
Ceiling: at least 12,000 feet AGL
Clouds: sky clear below 12,000 feet AGL
Weather: no significant weather observed at this time

METAR text: KAPC 252154Z 20011KT 10SM CLR 22/14 A2994 RMK AO2 SLP130 T02170144
Conditions at: KAPC (NAPA , CA, US) observed 2154 UTC 25 September 2021
Temperature: 21.7°C (71°F)
Dewpoint: 14.4°C (58°F) [RH = 63%]
Pressure (altimeter): 29.94 inches Hg (1014.0 mb)
[Sea-level pressure: 1013.0 mb]
Winds: from the SSW (200 degrees) at 13 MPH (11 knots; 5.7 m/s)
Visibility: 10 or more miles (16+ km)
Ceiling: at least 12,000 feet AGL
Clouds: sky clear below 12,000 feet AGL
Weather: no significant weather observed at this time

METAR text: KAPC 252054Z 20010KT 10SM CLR 22/14 A2996 RMK AO2 SLP137 T02170139 58016
Conditions at: KAPC (NAPA , CA, US) observed 2054 UTC 25 September 2021
Temperature: 21.7°C (71°F)
Dewpoint: 13.9°C (57°F) [RH = 61%]
Pressure (altimeter): 29.96 inches Hg (1014.6 mb)
[Sea-level pressure: 1013.7 mb]
Winds: from the SSW (200 degrees) at 12 MPH (10 knots; 5.1 m/s)
Visibility: 10 or more miles (16+ km)
Ceiling: at least 12,000 feet AGL
Clouds: sky clear below 12,000 feet AGL
Weather: no significant weather observed at this time

METAR text: KAPC 251954Z 21010KT 10SM CLR 21/13 A2998 RMK AO2 SLP143 T02060133
Conditions at: KAPC (NAPA , CA, US) observed 1954 UTC 25 September 2021
Temperature: 20.6°C (69°F)
Dewpoint: 13.3°C (56°F) [RH = 63%]
Pressure (altimeter): 29.98 inches Hg (1015.3 mb)
[Sea-level pressure: 1014.3 mb]
Winds: from the SSW (210 degrees) at 12 MPH (10 knots; 5.1 m/s)
Visibility: 10 or more miles (16+ km)
Ceiling: at least 12,000 feet AGL
Clouds: sky clear below 12,000 feet AGL
Weather: no significant weather observed at this time

METAR text: KAPC 251854Z 21007KT 10SM CLR 21/12 A3000 RMK AO2 SLP149 T02060122
Conditions at: KAPC (NAPA , CA, US) observed 1854 UTC 25 September 2021
Temperature: 20.6°C (69°F)
Dewpoint: 12.2°C (54°F) [RH = 59%]
Pressure (altimeter): 30.00 inches Hg (1016.0 mb)
[Sea-level pressure: 1014.9 mb]
Winds: from the SSW (210 degrees) at 8 MPH (7 knots; 3.6 m/s)
Visibility: 10 or more miles (16+ km)
Ceiling: at least 12,000 feet AGL
Clouds: sky clear below 12,000 feet AGL
Weather: no significant weather observed at this time

METAR text: KAPC 251754Z COR 27006KT 10SM CLR 18/12 A3001 RMK AO2 SLP154 T01780117 10178 20106 50006
Conditions at: KAPC (NAPA , CA, US) observed 1754 UTC 25 September 2021
Temperature: 17.8°C (64°F)
Dewpoint: 11.7°C (53°F) [RH = 67%]
Pressure (altimeter): 30.01 inches Hg (1016.3 mb)
[Sea-level pressure: 1015.4 mb]
Winds: from the W (270 degrees) at 7 MPH (6 knots; 3.1 m/s)
Visibility: 10 or more miles (16+ km)
Ceiling: at least 12,000 feet AGL
Clouds: sky clear below 12,000 feet AGL
Weather: no significant weather observed at this time

METAR text: KAPC 251736Z 22007KT 10SM FEW013 18/12 A3001 RMK AO2 T01780122
Conditions at: KAPC (NAPA , CA, US) observed 1736 UTC 25 September 2021
Temperature: 17.8°C (64°F)
Dewpoint: 12.2°C (54°F) [RH = 70%]
Pressure (altimeter): 30.01 inches Hg (1016.3 mb)
Winds: from the SW (220 degrees) at 8 MPH (7 knots; 3.6 m/s)
Visibility: 10 or more miles (16+ km)
Ceiling: at least 12,000 feet AGL
Clouds: few clouds at 1300 feet AGL
Weather: no significant weather observed at this time

METAR text: KAPC 251654Z VRB03KT 10SM BKN012 15/12 A3002 RMK AO2 SLP155 T01500117
Conditions at: KAPC (NAPA , CA, US) observed 1654 UTC 25 September 2021
Temperature: 15.0°C (59°F)
Dewpoint: 11.7°C (53°F) [RH = 81%]
Pressure (altimeter): 30.02 inches Hg (1016.7 mb)
[Sea-level pressure: 1015.5 mb]
Winds: variable direction winds at 3 MPH (3 knots; 1.5 m/s)
Visibility: 10 or more miles (16+ km)
Ceiling: 1200 feet AGL
Clouds: broken clouds at 1200 feet AGL
Weather: no significant weather observed at this time

METAR text: KAPC 251554Z 27004KT 3SM BR OVC008 14/12 A3001 RMK AO2 SLP152 T01390117
Conditions at: KAPC (NAPA , CA, US) observed 1554 UTC 25 September 2021
Temperature: 13.9°C (57°F)
Dewpoint: 11.7°C (53°F) [RH = 87%]
Pressure (altimeter): 30.01 inches Hg (1016.3 mb)
[Sea-level pressure: 1015.2 mb]
Winds: from the W (270 degrees) at 5 MPH (4 knots; 2.1 m/s)
Visibility: 3 miles ( 5 km)
Ceiling: 800 feet AGL
Clouds: overcast cloud deck at 800 feet AGL
Weather: BR  (mist)

METAR text: KAPC 251454Z 34003KT 3SM BR OVC007 13/12 A2999 RMK AO2 SLP148 T01280117 53006
Conditions at: KAPC (NAPA , CA, US) observed 1454 UTC 25 September 2021
Temperature: 12.8°C (55°F)
Dewpoint: 11.7°C (53°F) [RH = 93%]
Pressure (altimeter): 29.99 inches Hg (1015.7 mb)
[Sea-level pressure: 1014.8 mb]
Winds: from the NNW (340 degrees) at 3 MPH (3 knots; 1.5 m/s)
Visibility: 3 miles ( 5 km)
Ceiling: 700 feet AGL
Clouds: overcast cloud deck at 700 feet AGL
Weather: BR  (mist)

METAR text: KAPC 251354Z 34005KT 3SM BR OVC007 13/12 A2998 RMK AO2 SLP144 T01280117
Conditions at: KAPC (NAPA , CA, US) observed 1354 UTC 25 September 2021
Temperature: 12.8°C (55°F)
Dewpoint: 11.7°C (53°F) [RH = 93%]
Pressure (altimeter): 29.98 inches Hg (1015.3 mb)
[Sea-level pressure: 1014.4 mb]
Winds: from the NNW (340 degrees) at 6 MPH (5 knots; 2.6 m/s)
Visibility: 3 miles ( 5 km)
Ceiling: 700 feet AGL
Clouds: overcast cloud deck at 700 feet AGL
Weather: BR  (mist)

METAR text: KAPC 251254Z AUTO 36003KT 5SM BR SCT002 OVC009 11/11 A2998 RMK AO2 SLP143 T01110106
Conditions at: KAPC (NAPA , CA, US) observed 1254 UTC 25 September 2021
Temperature: 11.1°C (52°F)
Dewpoint: 10.6°C (51°F) [RH = 97%]
Pressure (altimeter): 29.98 inches Hg (1015.3 mb)
[Sea-level pressure: 1014.3 mb]
Winds: from the N (360 degrees) at 3 MPH (3 knots; 1.5 m/s)
Visibility: 5 miles ( 8 km)
Ceiling: 900 feet AGL
Clouds: scattered clouds at 200 feet AGL
overcast cloud deck at 900 feet AGL
Weather: BR  (mist)

METAR text: KAPC 251250Z AUTO 36003KT 3SM BR SCT002 OVC010 11/11 A2998 RMK AO2
Conditions at: KAPC (NAPA , CA, US) observed 1250 UTC 25 September 2021
Temperature: 11.0°C (52°F)
Dewpoint: 11.0°C (52°F) [RH = 100%]
Pressure (altimeter): 29.98 inches Hg (1015.3 mb)
Winds: from the N (360 degrees) at 3 MPH (3 knots; 1.5 m/s)
Visibility: 3 miles ( 5 km)
Ceiling: 1000 feet AGL
Clouds: scattered clouds at 200 feet AGL
overcast cloud deck at 1000 feet AGL
Weather: BR  (mist)

METAR text: KAPC 251237Z AUTO 34006KT 1SM BR BKN001 OVC010 11/11 A2998 RMK AO2 T01060106
Conditions at: KAPC (NAPA , CA, US) observed 1237 UTC 25 September 2021
Temperature: 10.6°C (51°F)
Dewpoint: 10.6°C (51°F) [RH = 100%]
Pressure (altimeter): 29.98 inches Hg (1015.3 mb)
Winds: from the NNW (340 degrees) at 7 MPH (6 knots; 3.1 m/s)
Visibility: 1.00 miles (1.61 km)
Ceiling: 100 feet AGL
Clouds: broken clouds at 100 feet AGL
overcast cloud deck at 1000 feet AGL
Weather: BR  (mist)

METAR text: KAPC 251226Z AUTO 35006KT 2 1/2SM BR SCT001 OVC010 11/11 A2998 RMK AO2 T01110106
Conditions at: KAPC (NAPA , CA, US) observed 1226 UTC 25 September 2021
Temperature: 11.1°C (52°F)
Dewpoint: 10.6°C (51°F) [RH = 97%]
Pressure (altimeter): 29.98 inches Hg (1015.3 mb)
Winds: from the N (350 degrees) at 7 MPH (6 knots; 3.1 m/s)
Visibility: 2.50 miles (4.02 km)
Ceiling: 1000 feet AGL
Clouds: scattered clouds at 100 feet AGL
overcast cloud deck at 1000 feet AGL
Weather: BR  (mist)

METAR text: KAPC 251217Z AUTO 33005KT 9SM BKN010 11/10 A2998 RMK AO2 T01060100
Conditions at: KAPC (NAPA , CA, US) observed 1217 UTC 25 September 2021
Temperature: 10.6°C (51°F)
Dewpoint: 10.0°C (50°F) [RH = 96%]
Pressure (altimeter): 29.98 inches Hg (1015.3 mb)
Winds: from the NNW (330 degrees) at 6 MPH (5 knots; 2.6 m/s)
Visibility: 9 miles (14 km)
Ceiling: 1000 feet AGL
Clouds: broken clouds at 1000 feet AGL
Weather: automated observation with no human augmentation;
there may or may not be significant weather present at this time

METAR text: KAPC 251204Z AUTO 32006KT 10SM FEW009 12/11 A2998 RMK AO2 T01170106
Conditions at: KAPC (NAPA , CA, US) observed 1204 UTC 25 September 2021
Temperature: 11.7°C (53°F)
Dewpoint: 10.6°C (51°F) [RH = 93%]
Pressure (altimeter): 29.98 inches Hg (1015.3 mb)
Winds: from the NW (320 degrees) at 7 MPH (6 knots; 3.1 m/s)
Visibility: 10 or more miles (16+ km)
Ceiling: at least 12,000 feet AGL
Clouds: few clouds at 900 feet AGL
Weather: automated observation with no human augmentation;
there may or may not be significant weather present at this time

METAR text: KAPC 251154Z AUTO 27007KT 10SM CLR 13/11 A2998 RMK AO2 SLP142 T01280111 10139 20117 50001
Conditions at: KAPC (NAPA , CA, US) observed 1154 UTC 25 September 2021
Temperature: 12.8°C (55°F)
Dewpoint: 11.1°C (52°F) [RH = 89%]
Pressure (altimeter): 29.98 inches Hg (1015.3 mb)
[Sea-level pressure: 1014.2 mb]
Winds: from the W (270 degrees) at 8 MPH (7 knots; 3.6 m/s)
Visibility: 10 or more miles (16+ km)
Ceiling: at least 12,000 feet AGL
Clouds: sky clear below 12,000 feet AGL
Weather: automated observation with no human augmentation;
there may or may not be significant weather present at this time

METAR text: KAPC 251054Z AUTO 26006KT 10SM CLR 13/11 A2998 RMK AO2 SLP142 T01280111
Conditions at: KAPC (NAPA , CA, US) observed 1054 UTC 25 September 2021
Temperature: 12.8°C (55°F)
Dewpoint: 11.1°C (52°F) [RH = 89%]
Pressure (altimeter): 29.98 inches Hg (1015.3 mb)
[Sea-level pressure: 1014.2 mb]
Winds: from the W (260 degrees) at 7 MPH (6 knots; 3.1 m/s)
Visibility: 10 or more miles (16+ km)
Ceiling: at least 12,000 feet AGL
Clouds: sky clear below 12,000 feet AGL
Weather: automated observation with no human augmentation;
there may or may not be significant weather present at this time

METAR text: KAPC 251014Z AUTO 29006KT 10SM FEW012 13/11 A2998 RMK AO2 T01280111
Conditions at: KAPC (NAPA , CA, US) observed 1014 UTC 25 September 2021
Temperature: 12.8°C (55°F)
Dewpoint: 11.1°C (52°F) [RH = 89%]
Pressure (altimeter): 29.98 inches Hg (1015.3 mb)
Winds: from the WNW (290 degrees) at 7 MPH (6 knots; 3.1 m/s)
Visibility: 10 or more miles (16+ km)
Ceiling: at least 12,000 feet AGL
Clouds: few clouds at 1200 feet AGL
Weather: automated observation with no human augmentation;
there may or may not be significant weather present at this time

METAR text: KAPC 250954Z AUTO 28008KT 10SM OVC012 13/12 A2998 RMK AO2 SLP142 T01280117
Conditions at: KAPC (NAPA , CA, US) observed 0954 UTC 25 September 2021
Temperature: 12.8°C (55°F)
Dewpoint: 11.7°C (53°F) [RH = 93%]
Pressure (altimeter): 29.98 inches Hg (1015.3 mb)
[Sea-level pressure: 1014.2 mb]
Winds: from the W (280 degrees) at 9 MPH (8 knots; 4.1 m/s)
Visibility: 10 or more miles (16+ km)
Ceiling: 1200 feet AGL
Clouds: overcast cloud deck at 1200 feet AGL
Weather: automated observation with no human augmentation;
there may or may not be significant weather present at this time

METAR text: KAPC 250928Z AUTO 25007KT 10SM BKN013 13/12 A2998 RMK AO2 T01330117
Conditions at: KAPC (NAPA , CA, US) observed 0928 UTC 25 September 2021
Temperature: 13.3°C (56°F)
Dewpoint: 11.7°C (53°F) [RH = 90%]
Pressure (altimeter): 29.98 inches Hg (1015.3 mb)
Winds: from the WSW (250 degrees) at 8 MPH (7 knots; 3.6 m/s)
Visibility: 10 or more miles (16+ km)
Ceiling: 1300 feet AGL
Clouds: broken clouds at 1300 feet AGL
Weather: automated observation with no human augmentation;
there may or may not be significant weather present at this time

METAR text: KAPC 250854Z AUTO 26008KT 10SM CLR 13/11 A2997 RMK AO2 SLP141 T01280111 53013
Conditions at: KAPC (NAPA , CA, US) observed 0854 UTC 25 September 2021
Temperature: 12.8°C (55°F)
Dewpoint: 11.1°C (52°F) [RH = 89%]
Pressure (altimeter): 29.97 inches Hg (1015.0 mb)
[Sea-level pressure: 1014.1 mb]
Winds: from the W (260 degrees) at 9 MPH (8 knots; 4.1 m/s)
Visibility: 10 or more miles (16+ km)
Ceiling: at least 12,000 feet AGL
Clouds: sky clear below 12,000 feet AGL
Weather: automated observation with no human augmentation;
there may or may not be significant weather present at this time

METAR text: KAPC 250826Z AUTO 27006KT 10SM SCT009 12/11 A2997 RMK AO2 T01220106
Conditions at: KAPC (NAPA , CA, US) observed 0826 UTC 25 September 2021
Temperature: 12.2°C (54°F)
Dewpoint: 10.6°C (51°F) [RH = 90%]
Pressure (altimeter): 29.97 inches Hg (1015.0 mb)
Winds: from the W (270 degrees) at 7 MPH (6 knots; 3.1 m/s)
Visibility: 10 or more miles (16+ km)
Ceiling: at least 12,000 feet AGL
Clouds: scattered clouds at 900 feet AGL
Weather: automated observation with no human augmentation;
there may or may not be significant weather present at this time

METAR text: KAPC 250754Z AUTO 30004KT 10SM OVC009 13/11 A2996 RMK AO2 SLP136 T01280111 402560111
Conditions at: KAPC (NAPA , CA, US) observed 0754 UTC 25 September 2021
Temperature: 12.8°C (55°F)
Dewpoint: 11.1°C (52°F) [RH = 89%]
Pressure (altimeter): 29.96 inches Hg (1014.6 mb)
[Sea-level pressure: 1013.6 mb]
Winds: from the WNW (300 degrees) at 5 MPH (4 knots; 2.1 m/s)
Visibility: 10 or more miles (16+ km)
Ceiling: 900 feet AGL
Clouds: overcast cloud deck at 900 feet AGL
Weather: automated observation with no human augmentation;
there may or may not be significant weather present at this time

METAR text: KAPC 250741Z AUTO 28005KT 10SM OVC009 14/12 A2996 RMK AO2 T01390122
Conditions at: KAPC (NAPA , CA, US) observed 0741 UTC 25 September 2021
Temperature: 13.9°C (57°F)
Dewpoint: 12.2°C (54°F) [RH = 89%]
Pressure (altimeter): 29.96 inches Hg (1014.6 mb)
Winds: from the W (280 degrees) at 6 MPH (5 knots; 2.6 m/s)
Visibility: 10 or more miles (16+ km)
Ceiling: 900 feet AGL
Clouds: overcast cloud deck at 900 feet AGL
Weather: automated observation with no human augmentation;
there may or may not be significant weather present at this time

METAR text: KAPC 250729Z AUTO 25006KT 10SM BKN010 14/12 A2996 RMK AO2 T01390117
Conditions at: KAPC (NAPA , CA, US) observed 0729 UTC 25 September 2021
Temperature: 13.9°C (57°F)
Dewpoint: 11.7°C (53°F) [RH = 87%]
Pressure (altimeter): 29.96 inches Hg (1014.6 mb)
Winds: from the WSW (250 degrees) at 7 MPH (6 knots; 3.1 m/s)
Visibility: 10 or more miles (16+ km)
Ceiling: 1000 feet AGL
Clouds: broken clouds at 1000 feet AGL
Weather: automated observation with no human augmentation;
there may or may not be significant weather present at this time

METAR text: KAPC 250654Z AUTO 24004KT 10SM CLR 13/11 A2995 RMK AO2 SLP133 T01280111
Conditions at: KAPC (NAPA , CA, US) observed 0654 UTC 25 September 2021
Temperature: 12.8°C (55°F)
Dewpoint: 11.1°C (52°F) [RH = 89%]
Pressure (altimeter): 29.95 inches Hg (1014.3 mb)
[Sea-level pressure: 1013.3 mb]
Winds: from the WSW (240 degrees) at 5 MPH (4 knots; 2.1 m/s)
Visibility: 10 or more miles (16+ km)
Ceiling: at least 12,000 feet AGL
Clouds: sky clear below 12,000 feet AGL
Weather: automated observation with no human augmentation;
there may or may not be significant weather present at this time

Forecast for: KAPC (NAPA , CA, US)
Text: KAPC 261727Z 2618/2718 25009KT P6SM FEW018 FEW080
Forecast period: 1800 to 2100 UTC 26 September 2021
Forecast type: FROM: standard forecast or significant change
Winds: from the WSW (250 degrees) at 10 MPH (9 knots; 4.6 m/s)
Visibility: 6 or more miles (10+ km)
Ceiling: at least 12,000 feet AGL
Clouds: few clouds at 1800 feet AGL
few clouds at 8000 feet AGL
Weather: no significant weather forecast for this period
Text: FM262100 25012KT P6SM FEW080
Forecast period: 2100 to 2300 UTC 26 September 2021
Forecast type: FROM: standard forecast or significant change
Winds: from the WSW (250 degrees) at 14 MPH (12 knots; 6.2 m/s)
Visibility: 6 or more miles (10+ km)
Ceiling: at least 12,000 feet AGL
Clouds: few clouds at 8000 feet AGL
Weather: no significant weather forecast for this period
Text: FM262300 23012G18KT P6SM SKC
Forecast period: 2300 UTC 26 September 2021 to 0400 UTC 27 September 2021
Forecast type: FROM: standard forecast or significant change
Winds: from the SW (230 degrees) at 14 MPH (12 knots; 6.2 m/s)
gusting to 21 MPH (18 knots; 9.3 m/s)
Visibility: 6 or more miles (10+ km)
Clouds: clear skies
Weather: no significant weather forecast for this period
Text: FM270400 26008KT P6SM SCT012
Forecast period: 0400 to 1000 UTC 27 September 2021
Forecast type: FROM: standard forecast or significant change
Winds: from the W (260 degrees) at 9 MPH (8 knots; 4.1 m/s)
Visibility: 6 or more miles (10+ km)
Ceiling: at least 12,000 feet AGL
Clouds: scattered clouds at 1200 feet AGL
Weather: no significant weather forecast for this period
Text: FM271000 25006KT P6SM OVC012
Forecast period: 1000 to 1800 UTC 27 September 2021
Forecast type: FROM: standard forecast or significant change
Winds: from the WSW (250 degrees) at 7 MPH (6 knots; 3.1 m/s)
Visibility: 6 or more miles (10+ km)
Ceiling: 1200 feet AGL
Clouds: overcast cloud deck at 1200 feet AGL
Weather: no significant weather forecast for this period